createdAt,value
2018-11-10T00:00:02.269Z,12.50
2018-11-10T00:02:30.766Z,12.60
2018-11-10T00:04:59.177Z,12.50
2018-11-10T00:07:27.614Z,12.50
2018-11-10T00:09:56.030Z,12.60
2018-11-10T00:12:24.462Z,12.50
2018-11-10T00:14:52.897Z,12.60
2018-11-10T00:17:21.360Z,12.60
2018-11-10T00:19:49.833Z,12.60
2018-11-10T00:22:18.260Z,12.60
2018-11-10T00:24:46.953Z,12.60
2018-11-10T00:27:15.389Z,12.50
2018-11-10T00:29:43.821Z,12.60
2018-11-10T00:32:12.285Z,12.50
2018-11-10T00:34:40.821Z,12.50
2018-11-10T00:37:09.201Z,12.50
2018-11-10T00:39:37.657Z,12.50
2018-11-10T00:42:06.608Z,12.50
2018-11-10T00:44:35.061Z,12.50
2018-11-10T00:47:03.545Z,12.50
2018-11-10T00:49:32.007Z,12.50
2018-11-10T00:52:00.601Z,12.50
2018-11-10T00:54:29.174Z,12.50
2018-11-10T00:56:57.607Z,12.50
2018-11-10T00:59:26.109Z,12.40
2018-11-10T01:01:54.577Z,12.30
2018-11-10T01:04:23.065Z,12.30
2018-11-10T01:06:51.514Z,12.30
2018-11-10T01:09:19.997Z,12.30
2018-11-10T01:11:48.430Z,12.30
2018-11-10T01:14:16.886Z,12.30
2018-11-10T01:16:45.356Z,12.40
2018-11-10T01:19:13.772Z,12.20
2018-11-10T01:21:42.201Z,12.10
2018-11-10T01:24:10.658Z,12.20
2018-11-10T01:26:39.109Z,12.30
2018-11-10T01:29:08.029Z,12.30
2018-11-10T01:31:36.457Z,12.40
2018-11-10T01:34:05.073Z,12.40
2018-11-10T01:36:33.518Z,12.50
2018-11-10T01:39:03.014Z,12.50
2018-11-10T01:41:31.461Z,12.40
2018-11-10T01:43:59.925Z,12.30
2018-11-10T01:46:28.345Z,12.30
2018-11-10T01:48:56.788Z,12.30
2018-11-10T01:51:25.236Z,12.40
2018-11-10T01:53:53.704Z,12.40
2018-11-10T01:56:22.121Z,12.50
2018-11-10T01:58:50.588Z,12.50
2018-11-10T02:01:19.026Z,12.50
2018-11-10T02:03:47.482Z,12.50
2018-11-10T02:06:15.909Z,12.50
2018-11-10T02:08:44.380Z,12.50
2018-11-10T02:11:12.937Z,12.60
2018-11-10T02:13:41.390Z,12.50
2018-11-10T02:16:09.801Z,12.60
2018-11-10T02:18:38.236Z,12.70
2018-11-10T02:21:06.716Z,12.80
2018-11-10T02:23:35.206Z,12.80
2018-11-10T02:26:03.721Z,12.80
2018-11-10T02:28:32.216Z,12.80
2018-11-10T02:31:00.648Z,12.80
2018-11-10T02:33:29.094Z,12.80
2018-11-10T02:35:57.558Z,12.80
2018-11-10T02:38:26.084Z,12.90
2018-11-10T02:40:54.522Z,12.90
2018-11-10T02:43:22.936Z,12.90
2018-11-10T02:45:51.450Z,13.10
2018-11-10T02:48:19.870Z,13.20
2018-11-10T02:50:48.318Z,13.20
2018-11-10T02:53:16.762Z,13.30
2018-11-10T02:55:45.189Z,13.30
2018-11-10T02:58:13.662Z,13.30
2018-11-10T03:00:42.091Z,13.40
2018-11-10T03:03:10.542Z,13.40
2018-11-10T03:05:38.977Z,13.40
2018-11-10T03:08:07.440Z,13.40
2018-11-10T03:10:35.929Z,13.40
2018-11-10T03:13:04.381Z,13.40
2018-11-10T03:15:32.796Z,13.50
2018-11-10T03:18:01.848Z,13.50
2018-11-10T03:20:30.313Z,13.60
2018-11-10T03:22:58.729Z,13.60
2018-11-10T03:25:27.122Z,13.60
2018-11-10T03:27:55.545Z,13.60
2018-11-10T03:30:24.009Z,13.70
2018-11-10T03:32:52.449Z,13.60
2018-11-10T03:35:20.877Z,13.70
2018-11-10T03:37:49.315Z,13.70
2018-11-10T03:40:17.750Z,13.70
2018-11-10T03:42:46.198Z,13.70
2018-11-10T03:45:14.654Z,13.70
2018-11-10T03:47:43.098Z,13.70
2018-11-10T03:50:12.164Z,13.70
2018-11-10T03:52:40.713Z,13.70
2018-11-10T03:55:09.745Z,13.70
2018-11-10T03:57:38.189Z,13.70
2018-11-10T04:00:09.797Z,13.80
2018-11-10T04:02:38.659Z,13.80
2018-11-10T04:05:07.984Z,13.80
2018-11-10T04:07:36.428Z,13.80
2018-11-10T04:10:05.724Z,13.80
2018-11-10T04:12:34.256Z,13.80
2018-11-10T04:15:02.793Z,13.80
2018-11-10T04:17:31.266Z,13.80
2018-11-10T04:19:59.687Z,13.90
2018-11-10T04:22:33.602Z,13.90
2018-11-10T04:25:02.897Z,13.90
2018-11-10T04:27:31.899Z,13.90
2018-11-10T04:30:00.580Z,13.90
2018-11-10T04:32:29.054Z,13.90
2018-11-10T04:34:57.522Z,14.00
2018-11-10T04:37:26.509Z,13.90
2018-11-10T04:39:54.996Z,13.90
2018-11-10T04:42:23.481Z,14.00
2018-11-10T04:44:51.921Z,13.90
2018-11-10T04:47:20.370Z,14.00
2018-11-10T04:49:48.835Z,13.90
2018-11-10T04:52:17.276Z,13.90
2018-11-10T04:54:45.694Z,13.90
2018-11-10T04:57:14.143Z,13.90
2018-11-10T04:59:42.577Z,13.80
2018-11-10T05:02:10.993Z,13.80
2018-11-10T05:04:39.472Z,13.70
2018-11-10T05:07:07.973Z,13.60
2018-11-10T05:09:36.424Z,13.60
2018-11-10T05:12:05.190Z,13.50
2018-11-10T05:14:33.650Z,13.40
2018-11-10T05:17:02.096Z,13.40
2018-11-10T05:19:30.548Z,13.30
2018-11-10T05:21:59.024Z,13.20
2018-11-10T05:24:27.833Z,13.20
2018-11-10T05:26:56.240Z,13.20
2018-11-10T05:29:24.676Z,13.10
2018-11-10T05:31:53.132Z,13.00
2018-11-10T05:34:21.578Z,13.00
2018-11-10T05:36:50.039Z,12.90
2018-11-10T05:39:18.521Z,12.90
2018-11-10T05:41:46.940Z,12.90
2018-11-10T05:44:15.365Z,12.80
2018-11-10T05:46:43.809Z,12.90
2018-11-10T05:49:12.260Z,12.90
2018-11-10T05:51:40.689Z,12.90
2018-11-10T05:54:09.124Z,12.90
2018-11-10T05:56:37.529Z,12.90
2018-11-10T05:59:06.315Z,12.90
2018-11-10T06:01:34.753Z,12.80
2018-11-10T06:04:03.246Z,12.90
2018-11-10T06:06:31.668Z,12.90
2018-11-10T06:09:00.190Z,12.90
2018-11-10T06:11:28.582Z,12.90
2018-11-10T06:13:57.034Z,12.90
2018-11-10T06:16:25.459Z,12.90
2018-11-10T06:18:53.981Z,12.90
2018-11-10T06:21:22.355Z,12.90
2018-11-10T06:23:50.812Z,13.00
2018-11-10T06:26:19.282Z,13.00
2018-11-10T06:28:47.843Z,12.90
2018-11-10T06:31:16.337Z,12.90
2018-11-10T06:33:44.815Z,13.00
2018-11-10T06:36:13.283Z,13.00
2018-11-10T06:38:41.722Z,13.00
2018-11-10T06:41:10.189Z,13.00
2018-11-10T06:43:38.641Z,13.10
2018-11-10T06:46:07.084Z,13.00
2018-11-10T06:48:35.517Z,13.00
2018-11-10T06:51:03.990Z,13.00
2018-11-10T06:53:32.454Z,13.10
2018-11-10T06:56:04.183Z,13.10
2018-11-10T06:58:32.632Z,13.10
2018-11-10T07:01:01.078Z,13.00
2018-11-10T07:03:29.629Z,13.10
2018-11-10T07:05:58.034Z,13.10
2018-11-10T07:08:26.517Z,13.10
2018-11-10T07:10:54.955Z,13.00
2018-11-10T07:13:23.409Z,13.00
2018-11-10T07:15:51.871Z,13.00
2018-11-10T07:18:20.304Z,13.10
2018-11-10T07:20:48.727Z,13.10
2018-11-10T07:23:18.496Z,13.00
2018-11-10T07:25:47.705Z,12.90
2018-11-10T07:28:16.151Z,12.90
2018-11-10T07:30:44.630Z,12.90
2018-11-10T07:33:13.062Z,12.90
2018-11-10T07:35:41.514Z,12.90
2018-11-10T07:38:10.096Z,12.90
2018-11-10T07:40:38.531Z,12.90
2018-11-10T07:43:07.069Z,12.90
2018-11-10T07:45:35.538Z,12.80
2018-11-10T07:48:04.003Z,12.90
2018-11-10T07:50:32.425Z,12.80
2018-11-10T07:53:00.865Z,12.80
2018-11-10T21:40:28.460Z,12.20
2018-11-10T21:42:56.891Z,12.20
2018-11-10T21:45:25.333Z,12.20
2018-11-10T21:47:53.749Z,12.30
2018-11-10T21:50:22.182Z,12.20
2018-11-10T21:52:50.606Z,12.20
2018-11-10T21:55:19.859Z,12.10
2018-11-10T21:57:48.821Z,12.10
2018-11-10T22:00:18.970Z,12.10
2018-11-10T22:02:47.653Z,12.10
2018-11-10T22:05:16.114Z,12.10
2018-11-10T22:07:44.545Z,12.10
2018-11-10T22:10:14.465Z,12.10
2018-11-10T22:12:43.218Z,12.10
2018-11-10T22:15:14.265Z,12.00
2018-11-10T22:17:43.651Z,12.00
2018-11-10T22:20:13.661Z,12.10
2018-11-10T22:22:42.187Z,12.10
2018-11-10T22:25:11.541Z,12.10
2018-11-10T22:27:41.384Z,12.10
2018-11-10T22:30:11.719Z,12.10
2018-11-10T22:32:40.277Z,12.00
2018-11-10T22:35:09.341Z,12.10
2018-11-10T22:37:38.176Z,12.10
2018-11-10T22:40:08.266Z,12.10
2018-11-10T22:42:37.577Z,12.10
2018-11-10T22:45:06.744Z,12.10
2018-11-10T22:47:35.180Z,12.10
2018-11-10T22:50:03.933Z,12.00
2018-11-10T22:52:32.360Z,12.00
2018-11-10T22:55:00.808Z,12.10
2018-11-10T22:57:29.250Z,12.10
2018-11-10T22:59:57.708Z,12.10
2018-11-10T23:02:26.124Z,12.10
2018-11-10T23:04:54.535Z,12.10
2018-11-10T23:07:22.960Z,12.00
2018-11-10T23:09:51.408Z,11.90
2018-11-10T23:12:19.865Z,11.90
2018-11-10T23:14:48.285Z,11.90
2018-11-10T23:17:16.782Z,11.90
2018-11-10T23:19:45.192Z,12.00
2018-11-10T23:22:13.617Z,12.00
2018-11-10T23:24:42.022Z,11.90
2018-11-10T23:27:11.530Z,11.90
2018-11-10T23:29:39.948Z,11.90
2018-11-10T23:32:08.386Z,11.90
2018-11-10T23:34:37.667Z,11.90
2018-11-10T23:37:06.213Z,11.90
2018-11-10T23:39:34.627Z,11.90
2018-11-10T23:42:03.077Z,11.90
2018-11-10T23:44:31.494Z,11.90
2018-11-10T23:46:59.945Z,11.90
2018-11-10T23:49:28.352Z,11.90
2018-11-10T23:51:56.790Z,11.90
2018-11-10T23:54:25.240Z,12.00
2018-11-10T23:56:53.698Z,12.00
